Portada
METAR-TAF:

METAR-TAF

Aeroports :

Udon Thani, Tailàndia

latitud: 17-23N, longitud: 102-48E, altitud: 177 m

Observació

L'informe es va fer fa 39 minuts, a les 00:00 UTC
Vent 2 kt amb direcció variable
Temperatura 25°C
Humitat 83%
Pressió 1013 hPa
Visibilitat 10 km o més
Escasses núvols a una alçada de 3000 ft

METAR: VTUD 040000Z VRB02KT 9999 FEW030 25/22 Q1013 NOSIG

Hora: 07:39 (00:39 UTC)

Pronòstic

L'informe es va fer fa 1 hora i 39 minuts, a les 23:00 UTC
Pronòstic vàlid del 04 a les 00 UTC al 04 a les 24 UTC
Vent 4 kt del Est/Sud-Est
Visibilitat: 8000 m
Escasses núvols a una alçada de 4000 ft
Temporalment
l' 04 a les 08 UTC al 04 a les 15 UTC
Visibilitat: 5000 m
Escasses núvols a una alçada de 1800 ft, Cumulonimbus.
Cel ennuvolat a una alçada de 3000 ft
tempesta, pluja

TAF: VTUD 032300Z 0400/0424 12004KT 8000 FEW040 TEMPO 0408/0415 5000 TSRA FEW018CB BKN030

Observacions i pronòstics meteorològics de més de 4000 aeroports (METAR i TAF).

Les estacions disponibles són els punts grocs i vermells al mapa.

Posi el ratolí al punt desitjat per veure el nom de l'estació.

Feu clic per veure les observacions i els pronòstics meteorològics.

Per canviar el mapa: feu clic els botons verds amb una creu de color negre per apropar; al botó verd amb un guió per allunyar la imatge; o en les fletxes verdes per a mapes adjacents.


METAR-TAF: